Terminal Aerodrome Forecast
Issued by NWS Jackson, MS

Home | Current Version | Previous Version | Text Only | Print | Product List | Glossary On
Versions: 1 2 3 4 5 6 7 8 9 10 11 12 13 14 15 16 17 18
000
FTUS44 KJAN 242346
TAFHBG
TAF
KHBG 242346Z 2500/2524 14010KT P6SM VCTS SCT025 BKN040CB BKN120
     FM250400 14007KT P6SM BKN025
     FM250600 15006KT P6SM OVC015
     FM250700 14005KT 4SM BR OVC007
     FM251400 15011KT P6SM VCTS SCT015 OVC050CB=

USA.gov is the U.S. government's official web portal to all federal, state and local government web resources and services.